Time;durP1;ratioP1;P1;durP2;ratioP2;P2;SDS_P1;SDS_P2;PMS_P1;PMS_P2;Temp;Humidity;BMP_temperature;BMP_pressure;BME280_temperature;BME280_humidity;BME280_pressure;Samples;Min_cycle;Max_cycle;Signal;HPM_P1;HPM_P2
2021/04/14 00:01:11;;;;;;;13.43;1.30;;;;;;;;;;4990190;28;20089;-57
2021/04/14 00:03:37;;;;;;;4.25;1.30;;;;;;;;;;4987841;28;20767;-57
2021/04/14 00:06:07;;;;;;;6.28;1.13;;;;;;;;;;4988309;28;20053;-57
2021/04/14 00:08:33;;;;;;;7.85;1.20;;;;;;;;;;4984729;28;20046;-57
2021/04/14 00:10:59;;;;;;;5.63;1.10;;;;;;;;;;4986911;28;20117;-55
2021/04/14 00:13:27;;;;;;;10.85;1.35;;;;;;;;;;4988778;28;20399;-56
2021/04/14 00:15:55;;;;;;;5.65;1.17;;;;;;;;;;4986837;28;20050;-57
2021/04/14 00:18:21;;;;;;;10.68;1.20;;;;;;;;;;4985086;28;20526;-57
2021/04/14 00:20:48;;;;;;;7.43;1.20;;;;;;;;;;4987849;28;20073;-57
2021/04/14 00:23:15;;;;;;;4.80;1.10;;;;;;;;;;4989452;28;20049;-55
2021/04/14 00:25:46;;;;;;;6.07;1.60;;;;;;;;;;4988223;28;20037;-56
2021/04/14 00:28:13;;;;;;;5.97;1.77;;;;;;;;;;4985971;28;20065;-58
2021/04/14 00:30:39;;;;;;;5.22;1.27;;;;;;;;;;4965240;28;20041;-58
2021/04/14 00:33:05;;;;;;;9.32;1.65;;;;;;;;;;4986345;28;20042;-58
2021/04/14 00:35:31;;;;;;;3.20;0.93;;;;;;;;;;4987673;28;20046;-57
2021/04/14 00:37:57;;;;;;;6.45;1.40;;;;;;;;;;4988616;28;20089;-57
2021/04/14 00:40:26;;;;;;;6.93;1.30;;;;;;;;;;4986370;28;20042;-56
2021/04/14 00:42:53;;;;;;;7.00;1.20;;;;;;;;;;4987283;28;20763;-56
2021/04/14 00:45:19;;;;;;;8.27;1.30;;;;;;;;;;4986310;28;20049;-57
2021/04/14 00:47:44;;;;;;;5.25;1.20;;;;;;;;;;4990006;28;20035;-58
2021/04/14 00:50:11;;;;;;;8.80;1.48;;;;;;;;;;4992825;28;20050;-57
2021/04/14 00:52:37;;;;;;;7.68;1.33;;;;;;;;;;4991568;28;20046;-58
2021/04/14 00:55:03;;;;;;;7.53;1.42;;;;;;;;;;4990882;28;22819;-57
2021/04/14 00:57:29;;;;;;;13.85;2.53;;;;;;;;;;4989784;28;20659;-56
2021/04/14 00:59:55;;;;;;;7.28;1.40;;;;;;;;;;4990455;28;20549;-58
2021/04/14 01:02:21;;;;;;;6.13;1.23;;;;;;;;;;4989550;28;20042;-57
2021/04/14 01:04:47;;;;;;;7.80;1.40;;;;;;;;;;4991898;28;20522;-58
2021/04/14 01:07:13;;;;;;;7.80;1.20;;;;;;;;;;4989834;28;20038;-57
2021/04/14 01:09:39;;;;;;;8.07;1.58;;;;;;;;;;4988972;28;20050;-59
2021/04/14 01:12:05;;;;;;;14.45;3.42;;;;;;;;;;4991578;28;20046;-58
2021/04/14 01:14:31;;;;;;;8.70;1.40;;;;;;;;;;4993216;28;20044;-57
2021/04/14 01:16:57;;;;;;;6.78;1.42;;;;;;;;;;4991771;28;20588;-58
2021/04/14 01:19:23;;;;;;;11.63;1.65;;;;;;;;;;4990268;28;20054;-58
2021/04/14 01:21:49;;;;;;;11.77;1.70;;;;;;;;;;4972515;28;20135;-57
2021/04/14 01:24:17;;;;;;;9.20;1.40;;;;;;;;;;4990508;28;20404;-55
2021/04/14 01:26:43;;;;;;;10.95;1.70;;;;;;;;;;4962041;28;20507;-56
2021/04/14 01:29:09;;;;;;;7.88;1.42;;;;;;;;;;4991289;28;20072;-59
2021/04/14 01:31:35;;;;;;;7.00;2.17;;;;;;;;;;4989677;28;20042;-57
2021/04/14 01:34:09;;;;;;;9.40;1.80;;;;;;;;;;4991283;28;20045;-56
2021/04/14 01:36:35;;;;;;;10.13;1.40;;;;;;;;;;4990818;28;20088;-56
2021/04/14 01:39:01;;;;;;;7.63;1.38;;;;;;;;;;4989747;28;20038;-56
2021/04/14 01:41:27;;;;;;;5.95;1.50;;;;;;;;;;4989238;28;20096;-56
2021/04/14 01:43:52;;;;;;;7.68;1.35;;;;;;;;;;4991663;28;20454;-56
2021/04/14 01:46:18;;;;;;;6.60;1.30;;;;;;;;;;4990575;28;20177;-56
2021/04/14 01:48:44;;;;;;;6.10;1.42;;;;;;;;;;4990248;28;20048;-55
2021/04/14 01:51:10;;;;;;;8.07;1.30;;;;;;;;;;4989442;28;20041;-57
2021/04/14 01:53:36;;;;;;;9.85;1.63;;;;;;;;;;4989034;28;20056;-56
2021/04/14 01:56:02;;;;;;;6.60;1.25;;;;;;;;;;4990518;28;20061;-56
2021/04/14 01:58:30;;;;;;;6.78;1.30;;;;;;;;;;4977990;28;20053;-54
2021/04/14 02:00:59;;;;;;;11.77;1.48;;;;;;;;;;4992605;28;20038;-53
2021/04/14 02:03:26;;;;;;;9.90;1.52;;;;;;;;;;4990829;28;20045;-56
2021/04/14 02:05:52;;;;;;;4.90;1.25;;;;;;;;;;4992114;28;20065;-53
2021/04/14 02:08:18;;;;;;;6.78;1.35;;;;;;;;;;4972940;28;20038;-56
2021/04/14 02:10:45;;;;;;;14.38;1.77;;;;;;;;;;4969511;28;20049;-57
2021/04/14 02:13:12;;;;;;;10.68;1.60;;;;;;;;;;4990554;28;20042;-56
2021/04/14 02:15:38;;;;;;;10.77;1.42;;;;;;;;;;4990226;28;20084;-55
2021/04/14 02:18:04;;;;;;;6.63;1.40;;;;;;;;;;4989824;28;20160;-55
2021/04/14 02:20:31;;;;;;;8.57;1.33;;;;;;;;;;4988302;28;20042;-56
2021/04/14 02:22:57;;;;;;;10.20;1.50;;;;;;;;;;4989222;28;20356;-56
2021/04/14 02:25:24;;;;;;;6.13;1.20;;;;;;;;;;4987967;28;20096;-56
2021/04/14 02:27:50;;;;;;;6.50;1.60;;;;;;;;;;4987406;28;20057;-56
2021/04/14 02:30:24;;;;;;;12.07;1.70;;;;;;;;;;4989558;28;20372;-56
2021/04/14 02:32:50;;;;;;;7.20;1.30;;;;;;;;;;4988004;28;20034;-57
2021/04/14 02:35:16;;;;;;;7.72;1.73;;;;;;;;;;4987487;28;20038;-55
2021/04/14 02:37:42;;;;;;;4.75;1.73;;;;;;;;;;4988160;28;20099;-55
2021/04/14 02:40:09;;;;;;;8.32;1.90;;;;;;;;;;4989537;28;20058;-56
2021/04/14 02:42:35;;;;;;;15.45;5.13;;;;;;;;;;4987538;28;20053;-56
2021/04/14 02:45:03;;;;;;;9.68;2.92;;;;;;;;;;4989110;28;20434;-55
2021/04/14 02:47:28;;;;;;;10.05;2.90;;;;;;;;;;4988472;28;20085;-56
2021/04/14 02:49:54;;;;;;;17.33;3.65;;;;;;;;;;4989507;28;20133;-57
2021/04/14 02:52:20;;;;;;;11.35;3.05;;;;;;;;;;4988760;28;20464;-57
2021/04/14 02:54:46;;;;;;;9.70;2.92;;;;;;;;;;4988187;28;20161;-56
2021/04/14 02:57:12;;;;;;;13.15;3.50;;;;;;;;;;4991119;28;20048;-56
2021/04/14 02:59:38;;;;;;;7.20;3.33;;;;;;;;;;4988716;28;20065;-56
2021/04/14 03:02:04;;;;;;;19.50;6.38;;;;;;;;;;4989310;28;20048;-56
2021/04/14 03:04:30;;;;;;;13.68;4.10;;;;;;;;;;4988201;28;20406;-55
2021/04/14 03:06:56;;;;;;;14.30;7.68;;;;;;;;;;4990811;28;20041;-54
2021/04/14 03:09:22;;;;;;;11.05;4.80;;;;;;;;;;4987826;28;20053;-56
2021/04/14 03:11:47;;;;;;;11.23;6.25;;;;;;;;;;4985335;28;20068;-54
2021/04/14 03:14:13;;;;;;;10.38;5.88;;;;;;;;;;4988537;28;20065;-56
2021/04/14 03:16:39;;;;;;;11.95;4.05;;;;;;;;;;4985096;28;20486;-56
2021/04/14 03:19:05;;;;;;;10.55;3.63;;;;;;;;;;4993084;28;20597;-56
2021/04/14 03:21:31;;;;;;;8.85;3.95;;;;;;;;;;4988532;28;20042;-56
2021/04/14 03:23:57;;;;;;;16.33;3.88;;;;;;;;;;4988936;28;20589;-54
2021/04/14 03:26:23;;;;;;;8.70;3.78;;;;;;;;;;4987962;28;20043;-55
2021/04/14 03:28:51;;;;;;;8.23;3.78;;;;;;;;;;4988505;28;20462;-55
2021/04/14 03:31:17;;;;;;;11.55;4.38;;;;;;;;;;4988187;28;20084;-56
2021/04/14 03:33:43;;;;;;;11.40;3.65;;;;;;;;;;4988923;28;20925;-56
2021/04/14 03:36:09;;;;;;;13.48;3.63;;;;;;;;;;4989559;28;20077;-56
2021/04/14 03:38:35;;;;;;;10.48;3.60;;;;;;;;;;4987010;28;20038;-56
2021/04/14 03:41:01;;;;;;;8.05;3.75;;;;;;;;;;4987792;28;20080;-56
2021/04/14 03:43:27;;;;;;;8.68;3.63;;;;;;;;;;4986169;28;20109;-56
2021/04/14 03:45:57;;;;;;;6.78;3.10;;;;;;;;;;4985592;28;20630;-55
2021/04/14 03:48:23;;;;;;;12.93;3.45;;;;;;;;;;4983936;28;20611;-56
2021/04/14 03:50:49;;;;;;;9.35;3.30;;;;;;;;;;4986743;28;20049;-56
2021/04/14 03:53:23;;;;;;;7.88;2.88;;;;;;;;;;4989318;28;20136;-55
2021/04/14 03:55:55;;;;;;;11.40;3.28;;;;;;;;;;4986905;28;20033;-52
2021/04/14 03:58:21;;;;;;;7.10;2.70;;;;;;;;;;4987157;28;20046;-55
2021/04/14 04:00:49;;;;;;;11.55;2.80;;;;;;;;;;4987662;28;20049;-53
2021/04/14 04:03:15;;;;;;;8.85;2.72;;;;;;;;;;4987657;28;20089;-56
2021/04/14 04:05:41;;;;;;;6.53;2.35;;;;;;;;;;4986633;28;20449;-55
2021/04/14 04:08:07;;;;;;;13.30;2.78;;;;;;;;;;4989487;28;20042;-54
2021/04/14 04:10:37;;;;;;;10.13;2.40;;;;;;;;;;4970607;28;20046;-55
2021/04/14 04:13:03;;;;;;;14.98;2.38;;;;;;;;;;4988362;28;20033;-54
2021/04/14 04:15:29;;;;;;;13.18;2.33;;;;;;;;;;4986664;28;20107;-53
2021/04/14 04:17:55;;;;;;;5.75;1.80;;;;;;;;;;4988224;28;20050;-55
2021/04/14 04:20:20;;;;;;;9.35;2.00;;;;;;;;;;4986749;28;20049;-56
2021/04/14 04:22:46;;;;;;;11.85;2.63;;;;;;;;;;4986844;28;20077;-56
2021/04/14 04:25:12;;;;;;;10.27;1.85;;;;;;;;;;4988344;28;20042;-56
2021/04/14 04:27:38;;;;;;;5.47;1.83;;;;;;;;;;4986251;28;20124;-55
2021/04/14 04:30:05;;;;;;;9.10;1.70;;;;;;;;;;4986008;28;20375;-56
2021/04/14 04:32:31;;;;;;;6.32;1.83;;;;;;;;;;4987501;28;20074;-54
2021/04/14 04:34:57;;;;;;;7.13;1.60;;;;;;;;;;4988703;28;20045;-55
2021/04/14 04:37:23;;;;;;;7.75;1.58;;;;;;;;;;4973593;28;20038;-54
2021/04/14 04:39:49;;;;;;;10.45;2.25;;;;;;;;;;4987401;28;20041;-53
2021/04/14 04:42:15;;;;;;;8.10;2.00;;;;;;;;;;4987545;28;20053;-53
2021/04/14 04:44:41;;;;;;;6.43;2.08;;;;;;;;;;4987356;28;20133;-56
2021/04/14 04:47:06;;;;;;;5.00;1.48;;;;;;;;;;4988051;28;20069;-54
2021/04/14 04:49:32;;;;;;;7.32;1.40;;;;;;;;;;4985988;28;20078;-55
2021/04/14 04:51:58;;;;;;;7.03;1.58;;;;;;;;;;4989787;28;20115;-52
2021/04/14 04:54:24;;;;;;;10.35;1.50;;;;;;;;;;4987921;28;20490;-54
2021/04/14 04:56:50;;;;;;;8.43;1.60;;;;;;;;;;4989227;28;20030;-55
2021/04/14 04:59:16;;;;;;;7.75;1.88;;;;;;;;;;4983512;28;20049;-57
2021/04/14 05:01:42;;;;;;;6.47;1.85;;;;;;;;;;4979159;28;20129;-55
2021/04/14 05:04:10;;;;;;;5.15;1.80;;;;;;;;;;4986602;28;20054;-54
2021/04/14 05:06:36;;;;;;;5.22;2.00;;;;;;;;;;4987064;28;20034;-55
2021/04/14 05:09:02;;;;;;;11.02;1.88;;;;;;;;;;4989299;28;20057;-55
2021/04/14 05:11:29;;;;;;;8.32;1.67;;;;;;;;;;4986533;28;20825;-56
2021/04/14 05:13:57;;;;;;;10.75;2.10;;;;;;;;;;4988037;28;20038;-54
2021/04/14 05:16:23;;;;;;;7.72;1.70;;;;;;;;;;4986164;28;20171;-55
2021/04/14 05:18:48;;;;;;;7.35;1.88;;;;;;;;;;4985901;28;20706;-56
2021/04/14 05:21:14;;;;;;;4.72;1.60;;;;;;;;;;4988480;28;20574;-53
2021/04/14 05:23:40;;;;;;;8.10;2.03;;;;;;;;;;4987109;28;20945;-56
2021/04/14 05:26:06;;;;;;;11.18;1.70;;;;;;;;;;4986788;28;20042;-55
2021/04/14 05:28:32;;;;;;;6.90;2.15;;;;;;;;;;4986153;28;20834;-55
2021/04/14 05:30:58;;;;;;;7.00;2.08;;;;;;;;;;4986619;28;20616;-54
2021/04/14 05:33:25;;;;;;;5.38;1.95;;;;;;;;;;4987642;28;20061;-52
2021/04/14 05:35:51;;;;;;;10.60;1.85;;;;;;;;;;4991122;28;20045;-54
2021/04/14 05:38:17;;;;;;;13.18;1.90;;;;;;;;;;4988982;28;20049;-55
2021/04/14 05:40:43;;;;;;;5.63;1.88;;;;;;;;;;4990075;28;20099;-55
2021/04/14 05:43:17;;;;;;;4.85;1.50;;;;;;;;;;4992160;28;20046;-53
2021/04/14 05:45:45;;;;;;;10.82;1.80;;;;;;;;;;4989021;28;20041;-54
2021/04/14 05:48:11;;;;;;;4.10;1.58;;;;;;;;;;4989637;28;20034;-54
2021/04/14 05:50:37;;;;;;;6.50;2.47;;;;;;;;;;4990747;28;20050;-56
2021/04/14 05:53:03;;;;;;;9.43;1.70;;;;;;;;;;4979657;28;20042;-51
2021/04/14 05:55:29;;;;;;;7.70;1.65;;;;;;;;;;4989186;28;20038;-52
2021/04/14 05:57:55;;;;;;;5.20;1.80;;;;;;;;;;4990038;28;20041;-54
2021/04/14 06:00:21;;;;;;;8.02;1.60;;;;;;;;;;4990264;28;20164;-52
2021/04/14 06:02:47;;;;;;;4.55;1.35;;;;;;;;;;4971656;28;20582;-52
2021/04/14 06:05:14;;;;;;;4.32;1.52;;;;;;;;;;4988574;28;20072;-53
2021/04/14 06:07:41;;;;;;;9.13;1.70;;;;;;;;;;4989349;28;20064;-53
2021/04/14 06:10:07;;;;;;;5.63;1.80;;;;;;;;;;4989523;28;20403;-51
2021/04/14 06:12:34;;;;;;;5.40;1.75;;;;;;;;;;4987688;28;20927;-53
2021/04/14 06:15:00;;;;;;;5.82;1.70;;;;;;;;;;4989180;28;20045;-56
2021/04/14 06:17:25;;;;;;;10.52;1.98;;;;;;;;;;4971496;28;20049;-51
2021/04/14 06:19:52;;;;;;;5.47;1.70;;;;;;;;;;4989035;28;20046;-54
2021/04/14 06:22:18;;;;;;;5.60;2.08;;;;;;;;;;4968834;28;20041;-55
2021/04/14 06:24:44;;;;;;;6.25;1.95;;;;;;;;;;4991323;28;20034;-55
2021/04/14 06:27:15;;;;;;;4.85;1.60;;;;;;;;;;4991873;28;20486;-52
2021/04/14 06:29:41;;;;;;;7.43;1.60;;;;;;;;;;4989634;28;21067;-51
2021/04/14 06:32:07;;;;;;;7.70;1.80;;;;;;;;;;4988018;28;20088;-52
2021/04/14 06:34:33;;;;;;;7.93;1.67;;;;;;;;;;4988887;28;20131;-53
2021/04/14 06:37:00;;;;;;;7.65;2.17;;;;;;;;;;4990712;28;20709;-54
2021/04/14 06:39:33;;;;;;;5.35;1.77;;;;;;;;;;4988317;28;20042;-54
2021/04/14 06:42:26;;;;;;;4.30;1.73;;;;;;;;;;4990290;28;20078;-56
2021/04/14 06:45:00;;;;;;;8.70;1.60;;;;;;;;;;4989096;28;20569;-54
2021/04/14 06:47:25;;;;;;;;;;;;;;;;;;4988305;28;20039;-54
2021/04/14 06:50:03;;;;;;;6.07;1.70;;;;;;;;;;4989947;28;20716;-54
2021/04/14 06:52:33;;;;;;;4.75;1.75;;;;;;;;;;4988797;28;20554;-51
2021/04/14 06:55:07;;;;;;;5.63;1.60;;;;;;;;;;4968533;28;20045;-51
2021/04/14 06:57:36;;;;;;;9.60;1.80;;;;;;;;;;4987053;28;20529;-55
2021/04/14 07:00:05;;;;;;;5.10;1.55;;;;;;;;;;4988664;28;20088;-52
2021/04/14 07:02:39;;;;;;;9.98;1.88;;;;;;;;;;4989309;28;20042;-55
2021/04/14 07:05:08;;;;;;;7.25;1.30;;;;;;;;;;4989998;28;20085;-55
2021/04/14 07:07:35;;;;;;;8.68;1.33;;;;;;;;;;4986820;28;20042;-51
2021/04/14 07:10:05;;;;;;;7.30;1.50;;;;;;;;;;4989262;28;20038;-52
2021/04/14 07:12:31;;;;;;;6.50;1.65;;;;;;;;;;4987809;28;20030;-56
2021/04/14 07:14:58;;;;;;;7.72;1.58;;;;;;;;;;4989254;28;20035;-54
2021/04/14 07:17:24;;;;;;;4.28;1.75;;;;;;;;;;4987940;28;20038;-53
2021/04/14 07:19:55;;;;;;;4.60;1.63;;;;;;;;;;4989214;28;20046;-56
2021/04/14 07:22:27;;;;;;;6.82;1.38;;;;;;;;;;4986690;28;20049;-53
2021/04/14 07:24:57;;;;;;;5.45;1.25;;;;;;;;;;4989207;28;20042;-53
2021/04/14 07:27:25;;;;;;;3.67;1.15;;;;;;;;;;4988685;28;20041;-52
2021/04/14 07:30:04;;;;;;;9.02;2.00;;;;;;;;;;4990830;28;20139;-54
2021/04/14 07:32:30;;;;;;;3.88;1.20;;;;;;;;;;4988171;28;20086;-53
2021/04/14 07:34:56;;;;;;;6.00;1.50;;;;;;;;;;4988236;28;20153;-53
2021/04/14 07:37:22;;;;;;;7.15;1.40;;;;;;;;;;4988502;28;20046;-55
2021/04/14 07:39:59;;;;;;;5.68;1.25;;;;;;;;;;4984959;28;20046;-56
2021/04/14 07:42:27;;;;;;;5.05;1.42;;;;;;;;;;4988163;28;20119;-53
2021/04/14 07:44:56;;;;;;;3.95;1.30;;;;;;;;;;4988849;28;20045;-54
2021/04/14 07:47:22;;;;;;;9.95;1.83;;;;;;;;;;4989093;28;20045;-56
2021/04/14 07:49:48;;;;;;;8.40;1.52;;;;;;;;;;4989663;28;20431;-55
2021/04/14 07:52:19;;;;;;;6.68;1.30;;;;;;;;;;4990803;28;20435;-55
2021/04/14 07:54:47;;;;;;;6.25;1.60;;;;;;;;;;4989787;28;20061;-55
2021/04/14 07:57:19;;;;;;;5.63;1.52;;;;;;;;;;4990476;28;20034;-54
2021/04/14 07:59:45;;;;;;;8.38;1.55;;;;;;;;;;4989698;28;20378;-55
2021/04/14 08:02:15;;;;;;;3.88;1.40;;;;;;;;;;4988592;28;20039;-55
2021/04/14 08:04:42;;;;;;;3.70;1.17;;;;;;;;;;4988275;28;20065;-53
2021/04/14 08:07:17;;;;;;;7.18;1.45;;;;;;;;;;4989414;28;20103;-53
2021/04/14 08:09:56;;;;;;;4.18;1.35;;;;;;;;;;4986844;28;20050;-52
2021/04/14 08:12:27;;;;;;;5.47;1.40;;;;;;;;;;4987104;28;20438;-55
2021/04/14 08:14:53;;;;;;;6.72;1.23;;;;;;;;;;4987933;28;20124;-52
2021/04/14 08:17:24;;;;;;;4.72;1.67;;;;;;;;;;4986689;28;20526;-54
2021/04/14 08:20:16;;;;;;;7.88;1.48;;;;;;;;;;4989925;28;20672;-55
2021/04/14 08:22:43;;;;;;;7.00;1.50;;;;;;;;;;4986194;28;20100;-52
2021/04/14 08:25:09;;;;;;;5.97;1.75;;;;;;;;;;4986844;28;20034;-52
2021/04/14 08:27:38;;;;;;;8.50;1.70;;;;;;;;;;4986914;28;20045;-54
2021/04/14 08:30:04;;;;;;;5.55;1.55;;;;;;;;;;4987611;28;20045;-55
2021/04/14 08:32:32;;;;;;;11.40;1.60;;;;;;;;;;4987195;28;20034;-52
2021/04/14 08:35:02;;;;;;;4.38;1.45;;;;;;;;;;4986835;28;20042;-53
2021/04/14 08:37:28;;;;;;;5.47;1.95;;;;;;;;;;4986843;28;20209;-53
2021/04/14 08:39:56;;;;;;;7.55;1.58;;;;;;;;;;4986617;28;20127;-55
2021/04/14 08:42:25;;;;;;;5.72;1.67;;;;;;;;;;4986821;28;20077;-53
2021/04/14 08:44:53;;;;;;;5.28;1.50;;;;;;;;;;4987700;28;20038;-54
2021/04/14 08:47:26;;;;;;;3.47;1.30;;;;;;;;;;4987408;28;20467;-54
2021/04/14 08:49:56;;;;;;;4.53;1.42;;;;;;;;;;4990568;28;20116;-54
2021/04/14 08:52:23;;;;;;;6.85;1.50;;;;;;;;;;4987624;28;20169;-56
2021/04/14 08:54:49;;;;;;;4.28;1.52;;;;;;;;;;4987984;28;20034;-55
2021/04/14 08:57:16;;;;;;;5.03;1.50;;;;;;;;;;4986236;28;20056;-55
2021/04/14 08:59:42;;;;;;;12.82;1.83;;;;;;;;;;4985693;28;20395;-52
2021/04/14 09:02:09;;;;;;;6.20;1.75;;;;;;;;;;4987009;28;20080;-55
2021/04/14 09:04:36;;;;;;;7.85;1.83;;;;;;;;;;4987003;28;20045;-55
2021/04/14 09:07:03;;;;;;;6.88;1.60;;;;;;;;;;4988575;28;20779;-54
2021/04/14 09:09:31;;;;;;;8.65;2.20;;;;;;;;;;4989687;28;20050;-53
2021/04/14 09:12:02;;;;;;;6.53;1.70;;;;;;;;;;4989916;28;20605;-51
2021/04/14 09:14:29;;;;;;;5.18;1.67;;;;;;;;;;4989641;28;20034;-54
2021/04/14 09:16:58;;;;;;;6.57;1.60;;;;;;;;;;4992400;28;20029;-54
2021/04/14 09:19:34;;;;;;;5.88;1.80;;;;;;;;;;4971449;28;20038;-52
2021/04/14 09:22:15;;;;;;;4.50;1.63;;;;;;;;;;4990416;28;20038;-53
2021/04/14 09:24:56;;;;;;;4.85;1.55;;;;;;;;;;4991427;28;20116;-53
2021/04/14 09:27:33;;;;;;;7.18;1.80;;;;;;;;;;4988697;28;20053;-54
2021/04/14 09:30:08;;;;;;;11.23;2.10;;;;;;;;;;4990954;28;20057;-53
2021/04/14 09:32:37;;;;;;;7.13;1.90;;;;;;;;;;4991882;28;20373;-51
2021/04/14 09:35:14;;;;;;;6.20;1.88;;;;;;;;;;4992607;28;20570;-52
2021/04/14 09:37:40;;;;;;;6.18;1.83;;;;;;;;;;4988059;28;20045;-54
2021/04/14 09:40:06;;;;;;;7.45;2.00;;;;;;;;;;4990486;28;20038;-52
2021/04/14 09:42:34;;;;;;;9.82;2.15;;;;;;;;;;4990337;28;20574;-52
2021/04/14 09:45:20;;;;;;;9.20;1.77;;;;;;;;;;4990986;28;20093;-55
2021/04/14 09:47:46;;;;;;;10.13;1.77;;;;;;;;;;4949729;28;20042;-53
2021/04/14 09:50:18;;;;;;;6.32;1.67;;;;;;;;;;4990118;28;20050;-55
2021/04/14 09:52:43;;;;;;;8.18;1.58;;;;;;;;;;4988911;28;20038;-52
2021/04/14 09:55:16;;;;;;;7.05;1.58;;;;;;;;;;4990405;28;20620;-52
2021/04/14 09:57:43;;;;;;;5.07;1.55;;;;;;;;;;4990130;28;20452;-54
2021/04/14 10:00:18;;;;;;;8.00;1.40;;;;;;;;;;4991685;28;20030;-55
2021/04/14 10:02:47;;;;;;;6.60;1.52;;;;;;;;;;4988689;28;20046;-54
2021/04/14 10:05:14;;;;;;;5.40;1.45;;;;;;;;;;4991317;28;20042;-54
2021/04/14 10:07:41;;;;;;;4.55;1.35;;;;;;;;;;4989206;28;20066;-52
2021/04/14 10:10:09;;;;;;;4.93;1.60;;;;;;;;;;4989440;28;20038;-55
2021/04/14 10:12:35;;;;;;;6.13;1.17;;;;;;;;;;4988214;28;20495;-53
2021/04/14 10:15:02;;;;;;;7.07;1.60;;;;;;;;;;4990640;28;20055;-55
2021/04/14 10:17:30;;;;;;;5.50;1.52;;;;;;;;;;4988087;28;20088;-55
2021/04/14 10:20:06;;;;;;;6.97;1.38;;;;;;;;;;4989103;28;20083;-55
2021/04/14 10:22:37;;;;;;;4.88;1.25;;;;;;;;;;4989624;28;20038;-53
2021/04/14 10:25:16;;;;;;;14.80;1.58;;;;;;;;;;4990577;28;20045;-55
2021/04/14 10:27:42;;;;;;;6.45;1.42;;;;;;;;;;4987506;28;20042;-52
2021/04/14 10:30:09;;;;;;;5.75;1.52;;;;;;;;;;4990179;28;20089;-55
2021/04/14 10:32:35;;;;;;;6.13;1.48;;;;;;;;;;4989685;28;20039;-52
2021/04/14 10:35:09;;;;;;;4.60;1.42;;;;;;;;;;4990503;28;20042;-51
2021/04/14 10:37:46;;;;;;;6.13;1.30;;;;;;;;;;4988569;28;20426;-53
2021/04/14 10:40:21;;;;;;;10.18;1.33;;;;;;;;;;4988476;28;20190;-55
2021/04/14 10:42:47;;;;;;;5.07;1.30;;;;;;;;;;4989102;28;20050;-51
2021/04/14 10:45:16;;;;;;;9.65;1.63;;;;;;;;;;4989217;28;20034;-52
2021/04/14 10:47:43;;;;;;;6.25;1.42;;;;;;;;;;4989387;28;20034;-55
2021/04/14 10:50:12;;;;;;;4.90;1.67;;;;;;;;;;4988352;28;20054;-51
2021/04/14 10:52:37;;;;;;;4.05;1.25;;;;;;;;;;4988817;28;20045;-55
2021/04/14 10:55:06;;;;;;;5.30;1.33;;;;;;;;;;4989708;28;20038;-52
2021/04/14 10:57:41;;;;;;;4.13;1.33;;;;;;;;;;4987907;28;20053;-53
2021/04/14 11:00:09;;;;;;;4.95;1.50;;;;;;;;;;4988822;28;20042;-54
2021/04/14 11:02:36;;;;;;;4.60;1.10;;;;;;;;;;4990204;28;20044;-55
2021/04/14 11:05:02;;;;;;;5.47;2.00;;;;;;;;;;4989826;28;20038;-55
2021/04/14 11:07:30;;;;;;;7.15;1.52;;;;;;;;;;4986603;28;20162;-52
2021/04/14 11:09:58;;;;;;;9.00;1.80;;;;;;;;;;4988173;28;20068;-54
2021/04/14 11:12:25;;;;;;;8.98;2.08;;;;;;;;;;4988701;28;20053;-53
2021/04/14 11:14:53;;;;;;;5.63;1.80;;;;;;;;;;4988933;28;20503;-52
2021/04/14 11:17:21;;;;;;;9.13;1.83;;;;;;;;;;4986918;28;20165;-52
2021/04/14 11:19:56;;;;;;;6.93;1.80;;;;;;;;;;4988040;28;20034;-55
2021/04/14 11:22:22;;;;;;;4.32;1.30;;;;;;;;;;4989007;28;20057;-52
2021/04/14 11:24:49;;;;;;;9.52;1.48;;;;;;;;;;4989041;28;20377;-52
2021/04/14 11:27:18;;;;;;;4.90;1.75;;;;;;;;;;4987402;28;20338;-54
2021/04/14 11:29:45;;;;;;;7.85;1.48;;;;;;;;;;4986410;28;20050;-55
2021/04/14 11:32:28;;;;;;;8.43;1.98;;;;;;;;;;4989944;28;20125;-54
2021/04/14 11:34:56;;;;;;;8.18;2.10;;;;;;;;;;4987445;28;20107;-52
2021/04/14 11:37:27;;;;;;;9.73;2.00;;;;;;;;;;4988469;28;20058;-52
2021/04/14 11:40:00;;;;;;;6.32;2.05;;;;;;;;;;4986774;28;20070;-55
2021/04/14 11:42:26;;;;;;;;;;;;;;;;;;4988901;28;20451;-53
2021/04/14 11:44:58;;;;;;;5.55;2.25;;;;;;;;;;4990597;28;19967;-52
2021/04/14 11:47:26;;;;;;;12.70;2.08;;;;;;;;;;4986750;28;20069;-51
2021/04/14 11:49:52;;;;;;;11.15;2.40;;;;;;;;;;4987437;28;20042;-54
2021/04/14 11:52:31;;;;;;;9.50;2.08;;;;;;;;;;4989463;28;20133;-53
2021/04/14 11:54:58;;;;;;;8.75;2.45;;;;;;;;;;4990370;28;20092;-54
2021/04/14 11:57:24;;;;;;;19.27;2.53;;;;;;;;;;4989162;28;20064;-52
2021/04/14 12:00:02;;;;;;;8.95;2.15;;;;;;;;;;4988144;28;20038;-54
2021/04/14 12:02:29;;;;;;;6.55;2.20;;;;;;;;;;4988085;28;20038;-52
2021/04/14 12:04:56;;;;;;;10.90;2.50;;;;;;;;;;4989764;28;20045;-53
2021/04/14 12:07:22;;;;;;;10.90;2.72;;;;;;;;;;4987916;28;20030;-53
2021/04/14 12:09:48;;;;;;;11.82;2.40;;;;;;;;;;4988632;28;20082;-54
2021/04/14 12:12:14;;;;;;;13.02;2.10;;;;;;;;;;4987541;28;20258;-54
2021/04/14 12:14:39;;;;;;;22.13;3.40;;;;;;;;;;4990138;28;20641;-50
2021/04/14 12:17:05;;;;;;;12.52;2.63;;;;;;;;;;4983965;28;20106;-55
2021/04/14 12:19:32;;;;;;;9.95;2.40;;;;;;;;;;4988073;28;20038;-51
2021/04/14 12:21:59;;;;;;;17.98;2.78;;;;;;;;;;4990335;28;20034;-51
2021/04/14 12:24:25;;;;;;;13.25;2.70;;;;;;;;;;4987447;28;20042;-51
2021/04/14 12:26:51;;;;;;;18.30;2.58;;;;;;;;;;4969109;28;20030;-53
2021/04/14 12:29:17;;;;;;;12.73;2.38;;;;;;;;;;4989511;28;20053;-52
2021/04/14 12:31:44;;;;;;;12.13;2.45;;;;;;;;;;4976516;28;20076;-50
2021/04/14 12:34:10;;;;;;;16.67;4.28;;;;;;;;;;4991566;28;20051;-51
2021/04/14 12:36:37;;;;;;;15.32;3.10;;;;;;;;;;4990332;28;20053;-54
2021/04/14 12:39:04;;;;;;;26.77;3.47;;;;;;;;;;4990456;28;20046;-51
2021/04/14 12:41:30;;;;;;;16.83;2.72;;;;;;;;;;4987275;28;20539;-52
2021/04/14 12:43:56;;;;;;;12.23;2.70;;;;;;;;;;4991665;28;20050;-54
2021/04/14 12:46:22;;;;;;;12.43;2.78;;;;;;;;;;4991220;28;20732;-55
2021/04/14 12:48:50;;;;;;;17.10;2.63;;;;;;;;;;4987884;28;20063;-54
2021/04/14 12:51:25;;;;;;;13.70;2.50;;;;;;;;;;4986903;28;20138;-55
2021/04/14 12:53:51;;;;;;;16.50;3.35;;;;;;;;;;4988126;28;20116;-54
2021/04/14 12:56:21;;;;;;;18.83;4.40;;;;;;;;;;4988452;28;20152;-54
2021/04/14 12:58:48;;;;;;;14.90;3.70;;;;;;;;;;4987344;28;20034;-54
2021/04/14 13:01:16;;;;;;;19.13;3.25;;;;;;;;;;4986371;28;20936;-53
2021/04/14 13:03:55;;;;;;;11.75;2.95;;;;;;;;;;4985833;28;20038;-53
2021/04/14 13:06:24;;;;;;;23.67;2.90;;;;;;;;;;4987866;28;20048;-52
2021/04/14 13:08:51;;;;;;;20.45;3.88;;;;;;;;;;4987155;28;20529;-54
2021/04/14 13:11:22;;;;;;;15.73;3.78;;;;;;;;;;4988031;28;20048;-55
2021/04/14 13:13:48;;;;;;;21.70;3.30;;;;;;;;;;4988399;28;20066;-53
2021/04/14 13:16:40;;;;;;;18.88;3.47;;;;;;;;;;4987632;28;20096;-51
2021/04/14 13:19:06;;;;;;;20.25;3.08;;;;;;;;;;4984062;28;20034;-52
2021/04/14 13:21:43;;;;;;;17.65;2.70;;;;;;;;;;4985552;28;20050;-55
2021/04/14 13:24:12;;;;;;;13.75;2.88;;;;;;;;;;4987573;28;21111;-54
2021/04/14 13:26:41;;;;;;;11.40;2.65;;;;;;;;;;4986455;28;20131;-55
2021/04/14 13:29:26;;;;;;;16.67;3.47;;;;;;;;;;4986179;28;20054;-54
2021/04/14 13:32:02;;;;;;;14.27;3.28;;;;;;;;;;4986056;28;20042;-52
2021/04/14 13:34:31;;;;;;;12.98;2.55;;;;;;;;;;4987201;28;20571;-51
2021/04/14 13:36:57;;;;;;;12.43;3.13;;;;;;;;;;4986608;28;20042;-55
2021/04/14 13:39:44;;;;;;;9.38;2.75;;;;;;;;;;4986364;28;20581;-53
2021/04/14 13:42:13;;;;;;;12.32;2.72;;;;;;;;;;4987463;28;20102;-55
2021/04/14 13:44:50;;;;;;;10.95;3.08;;;;;;;;;;4986894;28;20042;-55
2021/04/14 13:47:19;;;;;;;20.23;2.72;;;;;;;;;;4988509;28;20034;-55
2021/04/14 13:49:50;;;;;;;14.13;2.97;;;;;;;;;;4983638;28;21025;-55
2021/04/14 13:52:22;;;;;;;19.15;2.80;;;;;;;;;;4987919;28;20034;-52
2021/04/14 13:54:48;;;;;;;18.23;2.90;;;;;;;;;;4989486;28;20396;-54
2021/04/14 13:57:22;;;;;;;11.23;2.60;;;;;;;;;;4990034;28;20065;-53
2021/04/14 13:59:55;;;;;;;11.23;2.22;;;;;;;;;;4989268;28;20052;-55
2021/04/14 14:02:29;;;;;;;9.93;1.90;;;;;;;;;;4978853;28;20056;-55
2021/04/14 14:04:57;;;;;;;7.38;1.63;;;;;;;;;;4990045;28;20372;-52
2021/04/14 14:07:25;;;;;;;10.43;1.95;;;;;;;;;;4989655;28;20042;-56
2021/04/14 14:10:14;;;;;;;12.70;2.28;;;;;;;;;;4989884;28;20061;-54
2021/04/14 14:12:40;;;;;;;17.80;2.25;;;;;;;;;;4979454;28;20066;-54
2021/04/14 14:15:13;;;;;;;8.77;2.30;;;;;;;;;;4991565;28;20471;-54
2021/04/14 14:17:44;;;;;;;13.10;2.15;;;;;;;;;;4989349;28;20038;-53
2021/04/14 14:20:10;;;;;;;11.23;2.40;;;;;;;;;;4989187;28;20062;-54
2021/04/14 14:22:36;;;;;;;13.23;2.50;;;;;;;;;;4988686;28;20049;-53
2021/04/14 14:25:06;;;;;;;15.90;2.33;;;;;;;;;;4989720;28;20045;-55
2021/04/14 14:27:33;;;;;;;20.02;2.70;;;;;;;;;;4989356;28;20402;-55
2021/04/14 14:29:58;;;;;;;17.83;2.78;;;;;;;;;;4990152;28;20046;-52
2021/04/14 14:32:25;;;;;;;22.25;2.80;;;;;;;;;;4988822;28;20022;-55
2021/04/14 14:34:53;;;;;;;10.88;2.70;;;;;;;;;;4989391;28;20034;-55
2021/04/14 14:37:32;;;;;;;12.52;2.55;;;;;;;;;;4988739;28;20499;-55
2021/04/14 14:40:01;;;;;;;10.43;1.90;;;;;;;;;;4989845;28;20089;-52
2021/04/14 14:42:40;;;;;;;17.48;2.55;;;;;;;;;;4988740;28;20064;-55
2021/04/14 14:45:06;;;;;;;9.05;1.98;;;;;;;;;;4989573;28;20053;-55